createdAt,value
2017-10-05T00:00:27.940Z,99155
2017-10-05T00:02:56.787Z,99147
2017-10-05T00:05:24.872Z,99151
2017-10-05T00:07:53.054Z,99154
2017-10-05T00:10:21.126Z,99151
2017-10-05T00:12:49.204Z,99147
2017-10-05T00:15:18.043Z,99146
2017-10-05T00:17:46.128Z,99146
2017-10-05T00:20:14.203Z,99138
2017-10-05T00:22:42.305Z,99143
2017-10-05T00:25:10.376Z,99136
2017-10-05T00:27:38.475Z,99145
2017-10-05T00:30:06.552Z,99139
2017-10-05T00:32:34.624Z,99137
2017-10-05T00:35:02.714Z,99127
2017-10-05T00:37:30.787Z,99122
2017-10-05T00:39:58.865Z,99131
2017-10-05T00:42:26.948Z,99133
2017-10-05T00:44:55.032Z,99130
2017-10-05T00:47:23.125Z,99120
2017-10-05T00:49:51.204Z,99104
2017-10-05T00:52:19.272Z,99108
2017-10-05T00:54:47.932Z,99102
2017-10-05T00:57:16.006Z,99102
2017-10-05T00:59:44.104Z,99098
2017-10-05T01:02:12.188Z,99103
2017-10-05T01:04:41.030Z,99105
2017-10-05T01:07:09.116Z,99097
2017-10-05T01:09:37.194Z,99084
2017-10-05T01:12:05.280Z,99073
2017-10-05T01:14:33.346Z,99070
2017-10-05T01:17:01.446Z,99065
2017-10-05T01:19:30.287Z,99067
2017-10-05T01:21:58.371Z,99065
2017-10-05T01:24:26.444Z,99056
2017-10-05T01:26:54.528Z,99053
2017-10-05T01:29:22.604Z,99042
2017-10-05T01:31:50.704Z,99032
2017-10-05T01:34:19.587Z,99038
2017-10-05T01:36:48.435Z,99028
2017-10-05T01:39:16.511Z,99014
2017-10-05T01:41:44.591Z,99013
2017-10-05T01:44:12.675Z,99012
2017-10-05T01:46:40.756Z,98999
2017-10-05T01:49:08.836Z,99002
2017-10-05T01:51:37.690Z,98991
2017-10-05T01:54:05.779Z,98977
2017-10-05T01:56:33.868Z,98984
2017-10-05T01:59:01.942Z,98976
2017-10-05T02:01:30.784Z,98974
2017-10-05T02:03:58.879Z,98968
2017-10-05T02:06:26.947Z,98968
2017-10-05T02:08:55.024Z,98960
2017-10-05T02:11:23.106Z,98961
2017-10-05T02:13:51.183Z,98961
2017-10-05T02:16:19.271Z,98957
2017-10-05T02:18:48.124Z,98953
2017-10-05T02:21:16.216Z,98945
2017-10-05T02:23:44.287Z,98939
2017-10-05T02:26:12.391Z,98926
2017-10-05T02:28:41.235Z,98925
2017-10-05T02:31:09.331Z,98908
2017-10-05T02:33:37.603Z,98916
2017-10-05T02:36:05.688Z,98911
2017-10-05T02:38:33.759Z,98916
2017-10-05T02:41:01.847Z,98897
2017-10-05T02:43:30.691Z,98893
2017-10-05T02:45:58.767Z,98876
2017-10-05T02:48:26.861Z,98867
2017-10-05T02:50:54.931Z,98873
2017-10-05T02:53:23.011Z,98882
2017-10-05T02:55:51.092Z,98866
2017-10-05T02:58:19.946Z,98860
2017-10-05T03:00:48.019Z,98862
2017-10-05T03:03:16.100Z,98828
2017-10-05T03:05:44.171Z,98803
2017-10-05T03:08:12.255Z,98821
2017-10-05T03:10:40.327Z,98829
2017-10-05T03:13:08.426Z,98822
2017-10-05T03:15:37.279Z,98829
2017-10-05T03:18:05.348Z,98821
2017-10-05T03:20:33.449Z,98813
2017-10-05T03:23:01.519Z,98788
2017-10-05T03:25:29.620Z,98794
2017-10-05T03:27:57.693Z,98779
2017-10-05T03:30:25.788Z,98786
2017-10-05T03:32:53.864Z,98778
2017-10-05T03:35:21.953Z,98770
2017-10-05T03:37:50.031Z,98761
2017-10-05T03:40:18.130Z,98754
2017-10-05T03:42:46.191Z,98744
2017-10-05T03:45:14.276Z,98745
2017-10-05T03:47:42.347Z,98733
2017-10-05T03:50:10.437Z,98743
2017-10-05T03:52:38.519Z,98729
2017-10-05T03:55:06.595Z,98729
2017-10-05T03:57:34.667Z,98717
2017-10-05T04:00:02.744Z,98724
2017-10-05T04:02:30.830Z,98719
2017-10-05T04:04:58.908Z,98709
2017-10-05T04:07:26.983Z,98706
2017-10-05T04:09:55.822Z,98705
2017-10-05T04:12:24.688Z,98686
2017-10-05T04:14:52.755Z,98700
2017-10-05T04:17:20.838Z,98687
2017-10-05T04:19:48.914Z,98680
2017-10-05T04:22:17.007Z,98681
2017-10-05T04:24:45.070Z,98679
2017-10-05T04:27:13.139Z,98670
2017-10-05T04:29:41.220Z,98659
2017-10-05T04:32:09.293Z,98656
2017-10-05T04:34:37.370Z,98657
2017-10-05T04:37:06.207Z,98646
2017-10-05T04:39:34.295Z,98644
2017-10-05T04:42:02.372Z,98633
2017-10-05T04:44:30.456Z,98641
2017-10-05T04:46:58.534Z,98631
2017-10-05T04:49:26.615Z,98633
2017-10-05T04:51:54.689Z,98643
2017-10-05T04:54:22.762Z,98650
2017-10-05T04:56:50.832Z,98628
2017-10-05T04:59:18.916Z,98618
2017-10-05T05:01:47.759Z,98610
2017-10-05T05:04:15.843Z,98615
2017-10-05T05:06:43.935Z,98613
2017-10-05T05:09:12.028Z,98603
2017-10-05T05:11:40.862Z,98595
2017-10-05T05:14:08.938Z,98605
2017-10-05T05:16:37.035Z,98583
2017-10-05T05:19:05.120Z,98589
2017-10-05T05:21:33.196Z,98579
2017-10-05T05:24:02.917Z,98580
2017-10-05T05:26:31.769Z,98572
2017-10-05T05:29:00.059Z,98562
2017-10-05T05:31:28.136Z,98564
2017-10-05T05:33:56.203Z,98571
2017-10-05T05:36:24.290Z,98566
2017-10-05T05:38:52.375Z,98565
2017-10-05T05:41:21.244Z,98565
2017-10-05T05:43:49.327Z,98572
2017-10-05T05:46:18.201Z,98558
2017-10-05T05:48:46.279Z,98562
2017-10-05T05:51:14.380Z,98543
2017-10-05T05:53:43.232Z,98539
2017-10-05T05:56:11.313Z,98542
2017-10-05T05:58:39.391Z,98526
2017-10-05T06:01:07.464Z,98520
2017-10-05T06:03:35.543Z,98494
2017-10-05T06:06:03.677Z,98490
2017-10-05T06:08:31.768Z,98489
2017-10-05T06:10:59.835Z,98476
2017-10-05T06:13:27.924Z,98471
2017-10-05T06:15:56.023Z,98472
2017-10-05T06:18:24.888Z,98443
2017-10-05T06:20:52.958Z,98446
2017-10-05T06:23:21.035Z,98429
2017-10-05T06:25:49.115Z,98425
2017-10-05T06:28:17.192Z,98449
2017-10-05T06:30:45.272Z,98438
2017-10-05T06:33:14.127Z,98443
2017-10-05T06:35:42.229Z,98446
2017-10-05T06:38:10.307Z,98431
2017-10-05T06:40:39.163Z,98427
2017-10-05T06:43:07.252Z,98438
2017-10-05T06:45:35.335Z,98433
2017-10-05T06:48:03.416Z,98425
2017-10-05T06:50:32.262Z,98438
2017-10-05T06:53:00.331Z,98437
2017-10-05T06:55:28.415Z,98433
2017-10-05T06:57:56.487Z,98430
2017-10-05T07:00:24.554Z,98424
2017-10-05T07:02:52.635Z,98427
2017-10-05T07:05:20.703Z,98417
2017-10-05T07:07:49.547Z,98420
2017-10-05T07:10:18.387Z,98408
2017-10-05T07:12:46.475Z,98397
2017-10-05T07:15:14.543Z,98402
2017-10-05T07:17:42.627Z,98393
2017-10-05T07:20:10.691Z,98390
2017-10-05T07:22:38.775Z,98390
2017-10-05T07:25:06.837Z,98386
2017-10-05T07:27:34.911Z,98399
2017-10-05T07:30:02.983Z,98399
2017-10-05T07:32:31.054Z,98399
2017-10-05T07:34:59.127Z,98404
2017-10-05T07:37:27.232Z,98402
2017-10-05T07:39:56.068Z,98406
2017-10-05T07:42:24.142Z,98398
2017-10-05T07:44:52.215Z,98401
2017-10-05T07:47:20.336Z,98392
2017-10-05T07:49:49.171Z,98384
2017-10-05T07:52:17.267Z,98382
2017-10-05T07:54:45.347Z,98385
2017-10-05T07:57:13.427Z,98366
2017-10-05T07:59:41.500Z,98372
2017-10-05T08:02:09.572Z,98372
2017-10-05T08:04:37.652Z,98368
2017-10-05T08:07:05.743Z,98360
2017-10-05T08:09:34.579Z,98359
2017-10-05T08:12:02.672Z,98350
2017-10-05T08:14:30.740Z,98347
2017-10-05T08:16:58.817Z,98345
2017-10-05T08:19:26.887Z,98334
2017-10-05T08:21:54.958Z,98330
2017-10-05T08:24:23.076Z,98331
2017-10-05T08:26:51.151Z,98329
2017-10-05T08:29:19.238Z,98322
2017-10-05T08:31:48.079Z,98310
2017-10-05T08:34:16.150Z,98309
2017-10-05T08:36:44.218Z,98319
2017-10-05T08:39:12.359Z,98314
2017-10-05T08:41:40.432Z,98315
2017-10-05T08:44:08.507Z,98315
2017-10-05T08:46:36.570Z,98323
2017-10-05T08:49:04.646Z,98318
2017-10-05T08:51:32.775Z,98305
2017-10-05T08:54:01.623Z,98288
2017-10-05T08:56:29.701Z,98289
2017-10-05T08:58:57.771Z,98282
2017-10-05T09:01:25.842Z,98278
2017-10-05T09:03:53.911Z,98260
2017-10-05T09:06:21.991Z,98264
2017-10-05T09:08:50.059Z,98261
2017-10-05T09:11:18.130Z,98257
2017-10-05T09:13:46.214Z,98243
2017-10-05T09:16:14.275Z,98251
2017-10-05T09:18:42.348Z,98247
2017-10-05T09:21:10.420Z,98248
2017-10-05T09:23:38.495Z,98232
2017-10-05T09:26:06.572Z,98255
2017-10-05T09:28:34.677Z,98249
2017-10-05T09:31:03.522Z,98240
2017-10-05T09:33:31.583Z,98236
2017-10-05T09:35:59.659Z,98231
2017-10-05T09:38:27.727Z,98232
2017-10-05T09:40:55.800Z,98226
2017-10-05T09:43:23.872Z,98217
2017-10-05T09:45:51.940Z,98206
2017-10-05T09:48:20.012Z,98200
2017-10-05T09:50:48.113Z,98202
2017-10-05T09:53:16.159Z,98185
2017-10-05T09:55:45.200Z,98180
2017-10-05T09:58:13.263Z,98175
2017-10-05T10:00:41.331Z,98162
2017-10-05T10:03:09.407Z,98158
2017-10-05T10:05:37.478Z,98137
2017-10-05T10:08:05.591Z,98133
2017-10-05T10:10:34.422Z,98123
2017-10-05T10:13:02.501Z,98139
2017-10-05T10:15:30.575Z,98115
2017-10-05T10:17:58.668Z,98127
2017-10-05T10:20:26.740Z,98123
2017-10-05T10:22:54.811Z,98130
2017-10-05T10:25:22.959Z,98125
2017-10-05T10:27:51.030Z,98118
2017-10-05T10:30:19.099Z,98115
2017-10-05T10:32:47.178Z,98114
2017-10-05T10:35:15.247Z,98092
2017-10-05T10:37:43.315Z,98096
2017-10-05T10:40:11.399Z,98105
2017-10-05T10:42:39.470Z,98098
2017-10-05T10:45:07.554Z,98103
2017-10-05T10:47:35.616Z,98105
2017-10-05T10:50:03.696Z,98093
2017-10-05T10:52:31.759Z,98100
2017-10-05T10:54:59.830Z,98099
2017-10-05T10:57:27.906Z,98110
2017-10-05T10:59:55.979Z,98107
2017-10-05T11:02:24.064Z,98100
2017-10-05T11:04:52.143Z,98105
2017-10-05T11:07:20.212Z,98116
2017-10-05T11:09:48.287Z,98118
2017-10-05T11:12:16.363Z,98114
2017-10-05T11:14:44.444Z,98117
2017-10-05T11:17:12.516Z,98112
2017-10-05T11:19:41.383Z,98101
2017-10-05T11:22:09.456Z,98099
2017-10-05T11:24:37.545Z,98104
2017-10-05T11:27:05.615Z,98097
2017-10-05T11:29:33.696Z,98092
2017-10-05T11:32:01.755Z,98089
2017-10-05T11:34:29.853Z,98094
2017-10-05T11:36:58.683Z,98099
2017-10-05T11:39:26.756Z,98104
2017-10-05T11:41:55.582Z,98097
2017-10-05T11:44:23.659Z,98090
2017-10-05T11:46:51.727Z,98076
2017-10-05T11:49:19.806Z,98085
2017-10-05T11:51:47.874Z,98082
2017-10-05T11:54:15.952Z,98090
2017-10-05T11:56:44.015Z,98092
2017-10-05T11:59:12.095Z,98099
2017-10-05T12:01:40.159Z,98093
2017-10-05T12:04:08.236Z,98088
2017-10-05T12:06:36.308Z,98084
2017-10-05T12:09:04.412Z,98094
2017-10-05T12:11:33.255Z,98094
2017-10-05T12:14:01.330Z,98100
2017-10-05T12:16:29.399Z,98115
2017-10-05T12:18:57.476Z,98108
2017-10-05T12:21:25.544Z,98105
2017-10-05T12:23:53.634Z,98114
2017-10-05T12:26:21.707Z,98106
2017-10-05T12:28:49.787Z,98109
2017-10-05T12:31:17.852Z,98113
2017-10-05T12:33:45.931Z,98106
2017-10-05T12:36:13.991Z,98092
2017-10-05T12:38:42.069Z,98094
2017-10-05T12:41:10.135Z,98086
2017-10-05T12:43:38.231Z,98098
2017-10-05T12:46:06.296Z,98083
2017-10-05T12:48:34.384Z,98071
2017-10-05T12:51:03.219Z,98084
2017-10-05T12:53:31.283Z,98073
2017-10-05T12:55:59.375Z,98066
2017-10-05T12:58:27.445Z,98088
2017-10-05T13:00:55.523Z,98089
2017-10-05T13:03:23.592Z,98081
2017-10-05T13:05:51.664Z,98083
2017-10-05T13:08:19.730Z,98074
2017-10-05T13:10:47.807Z,98066
2017-10-05T13:13:15.883Z,98091
2017-10-05T13:15:44.888Z,98082
2017-10-05T13:18:12.956Z,98091
2017-10-05T13:20:41.027Z,98077
2017-10-05T13:23:09.112Z,98090
2017-10-05T13:25:37.184Z,98091
2017-10-05T13:28:05.260Z,98085
2017-10-05T13:30:33.332Z,98090
2017-10-05T13:33:01.433Z,98093
2017-10-05T13:35:30.285Z,98100
2017-10-05T13:37:58.367Z,98106
2017-10-05T13:40:26.447Z,98096
2017-10-05T13:42:54.508Z,98095
2017-10-05T13:45:22.574Z,98104
2017-10-05T13:47:50.683Z,98081
2017-10-05T13:50:19.535Z,98098
2017-10-05T13:52:47.616Z,98105
2017-10-05T13:55:15.696Z,98114
2017-10-05T13:57:43.767Z,98099
2017-10-05T14:00:11.844Z,98118
2017-10-05T14:02:39.907Z,98117
2017-10-05T14:05:07.995Z,98118
2017-10-05T14:07:36.063Z,98124
2017-10-05T14:10:04.143Z,98122
2017-10-05T14:12:32.259Z,98134
2017-10-05T14:15:00.336Z,98134
2017-10-05T14:17:28.411Z,98137
2017-10-05T14:19:57.248Z,98147
2017-10-05T14:22:25.322Z,98127
2017-10-05T14:24:53.387Z,98150
2017-10-05T14:27:21.451Z,98143
2017-10-05T14:29:49.544Z,98145
2017-10-05T14:32:17.611Z,98151
2017-10-05T14:34:45.690Z,98146
2017-10-05T14:37:13.765Z,98143
2017-10-05T14:39:42.611Z,98144
2017-10-05T14:42:10.688Z,98161
2017-10-05T14:44:38.763Z,98154
2017-10-05T14:47:06.835Z,98153
2017-10-05T14:49:34.922Z,98174
2017-10-05T14:52:02.994Z,98180
2017-10-05T14:54:31.067Z,98183
2017-10-05T14:56:59.147Z,98191
2017-10-05T14:59:27.220Z,98189
2017-10-05T15:01:55.319Z,98204
2017-10-05T15:04:24.167Z,98205
2017-10-05T15:06:52.235Z,98228
2017-10-05T15:09:20.315Z,98216
2017-10-05T15:11:48.391Z,98220
2017-10-05T15:14:16.479Z,98229
2017-10-05T15:16:44.534Z,98226
2017-10-05T15:19:12.631Z,98216
2017-10-05T15:21:41.468Z,98248
2017-10-05T15:24:09.539Z,98249
2017-10-05T15:26:37.619Z,98246
2017-10-05T15:29:05.687Z,98256
2017-10-05T15:31:33.779Z,98248
2017-10-05T15:34:01.846Z,98248
2017-10-05T15:36:29.920Z,98245
2017-10-05T15:38:57.991Z,98259
2017-10-05T15:41:26.095Z,98268
2017-10-05T15:43:54.163Z,98263
2017-10-05T15:46:22.234Z,98257
2017-10-05T15:48:50.307Z,98279
2017-10-05T15:51:18.399Z,98285
2017-10-05T15:53:47.237Z,98301
2017-10-05T15:56:15.311Z,98295
2017-10-05T15:58:43.391Z,98288
2017-10-05T16:01:11.459Z,98290
2017-10-05T16:03:39.539Z,98285
2017-10-05T16:06:07.623Z,98284
2017-10-05T16:08:35.706Z,98290
2017-10-05T16:11:03.779Z,98291
2017-10-05T16:13:32.643Z,98302
2017-10-05T16:16:00.715Z,98308
2017-10-05T16:18:29.838Z,98323
2017-10-05T16:20:58.782Z,98331
2017-10-05T16:23:27.865Z,98346
2017-10-05T16:25:56.265Z,98348
2017-10-05T16:28:24.576Z,98364
2017-10-05T16:30:53.618Z,98367
2017-10-05T16:33:22.043Z,98362
2017-10-05T16:35:51.216Z,98368
2017-10-05T16:38:19.433Z,98386
2017-10-05T16:40:48.569Z,98372
2017-10-05T16:43:17.844Z,98370
2017-10-05T16:45:46.929Z,98381
2017-10-05T16:48:15.920Z,98399
2017-10-05T16:50:45.014Z,98399
2017-10-05T16:53:13.098Z,98407
2017-10-05T16:55:41.954Z,98421
2017-10-05T16:58:10.032Z,98416
2017-10-05T17:00:38.119Z,98419
2017-10-05T17:03:06.188Z,98428
2017-10-05T17:05:34.275Z,98432
2017-10-05T17:08:02.334Z,98447
2017-10-05T17:10:30.428Z,98455
2017-10-05T17:12:59.269Z,98457
2017-10-05T17:15:27.348Z,98461
2017-10-05T17:17:55.428Z,98462
2017-10-05T17:20:23.539Z,98475
2017-10-05T17:22:52.376Z,98481
2017-10-05T17:25:20.443Z,98481
2017-10-05T17:27:49.303Z,98488
2017-10-05T17:30:17.363Z,98494
2017-10-05T17:32:46.206Z,98494
2017-10-05T17:35:14.291Z,98502
2017-10-05T17:37:42.412Z,98523
2017-10-05T17:40:11.255Z,98521
2017-10-05T17:42:39.326Z,98514
2017-10-05T17:45:07.415Z,98518
2017-10-05T17:47:35.493Z,98539
2017-10-05T17:50:03.571Z,98547
2017-10-05T17:52:31.646Z,98546
2017-10-05T17:54:59.727Z,98537
2017-10-05T17:57:28.625Z,98552
2017-10-05T17:59:57.476Z,98559
2017-10-05T18:02:25.543Z,98566
2017-10-05T18:04:53.722Z,98560
2017-10-05T18:07:21.791Z,98565
2017-10-05T18:09:49.988Z,98577
2017-10-05T18:12:18.067Z,98581
2017-10-05T18:14:46.136Z,98578
2017-10-05T18:17:14.212Z,98579
2017-10-05T18:19:42.282Z,98581
2017-10-05T18:22:10.360Z,98589
2017-10-05T18:24:38.432Z,98586
2017-10-05T18:27:07.327Z,98591
2017-10-05T18:29:36.390Z,98593
2017-10-05T18:32:04.487Z,98600
2017-10-05T18:34:32.563Z,98603
2017-10-05T18:37:00.650Z,98607
2017-10-05T18:39:29.487Z,98611
2017-10-05T18:41:57.571Z,98613
2017-10-05T18:44:25.719Z,98614
2017-10-05T18:46:53.803Z,98613
2017-10-05T18:49:21.892Z,98615
2017-10-05T18:51:49.987Z,98620
2017-10-05T18:54:18.064Z,98619
2017-10-05T18:56:46.148Z,98623
2017-10-05T18:59:14.988Z,98625
2017-10-05T19:01:43.066Z,98629
2017-10-05T19:04:11.145Z,98623
2017-10-05T19:06:39.242Z,98634
2017-10-05T19:09:07.308Z,98630
2017-10-05T19:11:35.391Z,98640
2017-10-05T19:14:03.461Z,98636
2017-10-05T19:16:31.546Z,98636
2017-10-05T19:19:00.388Z,98641
2017-10-05T19:21:28.469Z,98645
2017-10-05T19:23:56.544Z,98649
2017-10-05T19:26:24.632Z,98649
2017-10-05T19:28:52.703Z,98652
2017-10-05T19:31:20.788Z,98655
2017-10-05T19:33:48.860Z,98659
2017-10-05T19:36:16.952Z,98663
2017-10-05T19:38:45.796Z,98665
2017-10-05T19:41:13.896Z,98671
2017-10-05T19:43:42.021Z,98671
2017-10-05T19:46:10.117Z,98666
2017-10-05T19:48:38.236Z,98670
2017-10-05T19:51:07.076Z,98674
2017-10-05T19:53:35.157Z,98674
2017-10-05T19:56:03.253Z,98685
2017-10-05T19:58:31.336Z,98681
2017-10-05T20:01:01.093Z,98678
2017-10-05T20:03:29.173Z,98676
2017-10-05T20:05:57.267Z,98692
2017-10-05T20:08:25.353Z,98688
2017-10-05T20:10:53.445Z,98684
2017-10-05T20:16:36.667Z,98701
2017-10-05T20:19:05.076Z,98712
2017-10-05T20:21:36.328Z,98714
2017-10-05T20:24:10.801Z,98723
2017-10-05T20:26:40.749Z,98726
2017-10-05T20:29:10.297Z,98733
2017-10-05T20:34:41.956Z,98745
2017-10-05T20:37:10.041Z,98735
2017-10-05T20:39:38.107Z,98738
2017-10-05T20:42:06.196Z,98738
2017-10-05T20:44:34.272Z,98742
2017-10-05T20:47:02.360Z,98737
2017-10-05T20:49:30.432Z,98739
2017-10-05T20:51:58.525Z,98747
2017-10-05T20:54:26.595Z,98748
2017-10-05T20:56:54.702Z,98741
2017-10-05T20:59:22.804Z,98735
2017-10-05T21:01:50.900Z,98737
2017-10-05T21:04:18.979Z,98751
2017-10-05T21:06:47.060Z,98735
2017-10-05T21:09:15.203Z,98739
2017-10-05T21:11:43.285Z,98739
2017-10-05T21:14:11.352Z,98737
2017-10-05T21:16:39.455Z,98751
2017-10-05T21:19:07.537Z,98751
2017-10-05T21:21:35.612Z,98744
2017-10-05T21:24:03.692Z,98742
2017-10-05T21:26:32.575Z,98751
2017-10-05T21:29:00.644Z,98745
2017-10-05T21:31:28.737Z,98751
2017-10-05T21:33:57.581Z,98761
2017-10-05T21:36:25.664Z,98763
2017-10-05T21:38:53.732Z,98761
2017-10-05T21:41:21.822Z,98768
2017-10-05T21:43:49.883Z,98786
2017-10-05T21:46:17.977Z,98781
2017-10-05T21:48:46.824Z,98781
2017-10-05T21:51:14.901Z,98791
2017-10-05T21:53:43.032Z,98774
2017-10-05T21:56:11.871Z,98777
2017-10-05T21:58:39.980Z,98786
2017-10-05T22:01:08.826Z,98780
2017-10-05T22:03:36.904Z,98794
2017-10-05T22:06:04.985Z,98791
2017-10-05T22:08:33.073Z,98796
2017-10-05T22:11:01.152Z,98794
2017-10-05T22:13:29.236Z,98799
2017-10-05T22:15:58.080Z,98799
2017-10-05T22:18:26.160Z,98805
2017-10-05T22:20:54.240Z,98810
2017-10-05T22:23:22.325Z,98807
2017-10-05T22:25:50.430Z,98799
2017-10-05T22:28:19.285Z,98803
2017-10-05T22:30:47.360Z,98797
2017-10-05T22:33:15.436Z,98798
2017-10-05T22:35:43.516Z,98795
2017-10-05T22:38:11.592Z,98801
2017-10-05T22:40:39.660Z,98799
2017-10-05T22:43:07.734Z,98798
2017-10-05T22:45:35.804Z,98802
2017-10-05T22:48:03.876Z,98799
2017-10-05T22:50:31.948Z,98805
2017-10-05T22:53:00.080Z,98796
2017-10-05T22:55:28.145Z,98801
2017-10-05T22:57:56.224Z,98801
2017-10-05T23:00:24.297Z,98804
2017-10-05T23:02:52.376Z,98801
2017-10-05T23:05:20.445Z,98801
2017-10-05T23:07:48.613Z,98808
2017-10-05T23:10:16.688Z,98809
2017-10-05T23:12:44.781Z,98807
2017-10-05T23:15:12.868Z,98809
2017-10-05T23:17:40.935Z,98814
2017-10-05T23:20:09.020Z,98804
2017-10-05T23:22:37.109Z,98804
2017-10-05T23:25:05.953Z,98816
2017-10-05T23:27:34.034Z,98809
2017-10-05T23:30:02.105Z,98809
2017-10-05T23:32:30.184Z,98805
2017-10-05T23:34:58.252Z,98804
2017-10-05T23:37:26.336Z,98806
2017-10-05T23:39:54.407Z,98806
2017-10-05T23:42:22.503Z,98814
2017-10-05T23:44:51.336Z,98815
2017-10-05T23:47:20.185Z,98806
2017-10-05T23:49:49.074Z,98818
2017-10-05T23:52:17.932Z,98822
2017-10-05T23:54:46.009Z,98828
2017-10-05T23:57:14.093Z,98820
2017-10-05T23:59:42.164Z,98826
